createdAt,value
2017-09-04T00:01:30.433Z,1007.72
2017-09-04T00:11:30.585Z,1007.62
2017-09-04T00:21:30.333Z,1007.65
2017-09-04T00:31:30.410Z,1007.59
2017-09-04T00:41:30.366Z,1007.68
2017-09-04T00:51:30.333Z,1007.64
2017-09-04T01:01:30.391Z,1007.63
2017-09-04T01:11:30.359Z,1007.58
2017-09-04T01:21:30.323Z,1007.48
2017-09-04T01:31:30.375Z,1007.52
2017-09-04T01:41:31.359Z,1007.53
2017-09-04T01:51:30.394Z,1007.53
2017-09-04T02:01:30.390Z,1007.57
2017-09-04T02:11:31.340Z,1007.48
2017-09-04T02:21:30.393Z,1007.49
2017-09-04T02:31:30.456Z,1007.29
2017-09-04T02:41:32.472Z,1007.39
2017-09-04T02:51:31.402Z,1007.29
2017-09-04T03:01:32.496Z,1007.27
2017-09-04T03:11:30.441Z,1007.3
2017-09-04T03:21:30.461Z,1007.26
2017-09-04T03:31:30.432Z,1007.31
2017-09-04T03:41:31.520Z,1007.32
2017-09-04T03:51:31.489Z,1007.44
2017-09-04T04:01:30.524Z,1007.44
2017-09-04T04:11:30.479Z,1007.45
2017-09-04T04:21:30.537Z,1007.42
2017-09-04T04:31:30.489Z,1007.42
2017-09-04T04:41:30.565Z,1007.32
2017-09-04T04:51:30.528Z,1007.41
2017-09-04T05:01:32.545Z,1007.51
2017-09-04T05:11:32.582Z,1007.56
2017-09-04T05:21:30.513Z,1007.56
2017-09-04T05:31:30.565Z,1007.6
2017-09-04T05:41:31.560Z,1007.61
2017-09-04T05:51:30.584Z,1007.75
2017-09-04T06:01:30.566Z,1007.78
2017-09-04T06:11:31.646Z,1007.75
2017-09-04T06:21:30.539Z,1007.76
2017-09-04T06:31:31.669Z,1007.87
2017-09-04T06:41:30.614Z,1008
2017-09-04T06:51:30.665Z,1008.08
2017-09-04T07:01:30.640Z,1008.16
2017-09-04T07:11:31.631Z,1008.15
2017-09-04T07:21:30.655Z,1008.29
2017-09-04T07:31:30.719Z,1008.41
2017-09-04T07:41:34.367Z,1008.48
2017-09-04T07:51:30.730Z,1008.6
2017-09-04T08:01:30.650Z,1008.59
2017-09-04T08:11:30.670Z,1008.66
2017-09-04T08:21:30.662Z,1008.69
2017-09-04T08:31:30.677Z,1008.69
2017-09-04T08:41:30.660Z,1008.65
2017-09-04T08:51:30.680Z,1008.72
2017-09-04T09:01:30.667Z,1008.75
2017-09-04T09:11:30.700Z,1008.69
2017-09-04T09:21:30.693Z,1008.61
2017-09-04T09:31:30.678Z,1008.67
2017-09-04T09:41:30.686Z,1008.77
2017-09-04T09:51:30.669Z,1008.69
2017-09-04T10:01:30.676Z,1008.68
2017-09-04T10:11:30.681Z,1008.69
2017-09-04T10:21:30.679Z,1008.65
2017-09-04T10:31:30.669Z,1008.8
2017-09-04T10:41:43.932Z,1008.69
2017-09-04T10:51:43.802Z,1008.61
2017-09-04T11:01:43.894Z,1008.68
2017-09-04T11:11:43.200Z,1008.73
2017-09-04T11:21:43.461Z,1008.64
2017-09-04T11:31:43.234Z,1008.59
2017-09-04T11:41:43.535Z,1008.52
2017-09-04T11:51:42.935Z,1008.71
2017-09-04T12:01:42.909Z,1008.68
2017-09-04T12:11:43.233Z,1008.83
2017-09-04T12:21:43.835Z,1008.66
2017-09-04T12:31:43.636Z,1008.59
2017-09-04T12:41:30.726Z,1008.65
2017-09-04T12:51:30.800Z,1008.66
2017-09-04T13:01:30.754Z,1008.6
2017-09-04T13:11:30.826Z,1008.5
2017-09-04T13:21:30.790Z,1008.59
2017-09-04T13:31:30.747Z,1008.63
2017-09-04T13:41:30.802Z,1008.69
2017-09-04T13:51:30.770Z,1008.66
2017-09-04T14:01:30.735Z,1008.53
2017-09-04T14:11:30.781Z,1008.66
2017-09-04T14:21:30.744Z,1008.56
2017-09-04T14:31:30.806Z,1008.5
2017-09-04T14:41:30.778Z,1008.49
2017-09-04T14:51:30.826Z,1008.6
2017-09-04T15:01:30.786Z,1008.5
2017-09-04T15:11:30.746Z,1008.32
2017-09-04T15:21:30.807Z,1008.31
2017-09-04T15:31:30.773Z,1008.41
2017-09-04T15:41:30.837Z,1008.66
2017-09-04T15:51:30.805Z,1008.67
2017-09-04T16:01:30.776Z,1008.69
2017-09-04T16:11:30.834Z,1008.69
2017-09-04T16:21:30.781Z,1008.72
2017-09-04T16:31:30.834Z,1008.79
2017-09-04T16:41:30.813Z,1008.71
2017-09-04T16:51:30.771Z,1008.71
2017-09-04T17:01:30.796Z,1008.69
2017-09-04T17:11:30.734Z,1008.73
2017-09-04T17:21:30.744Z,1008.67
2017-09-04T17:31:30.742Z,1008.83
2017-09-04T17:41:30.752Z,1008.96
2017-09-04T17:51:30.748Z,1009.03
2017-09-04T18:01:30.732Z,1009.09
2017-09-04T18:11:30.749Z,1009.21
2017-09-04T18:21:30.759Z,1009.27
2017-09-04T18:31:30.742Z,1009.29
2017-09-04T18:41:30.752Z,1009.36
2017-09-04T18:51:30.750Z,1009.52
2017-09-04T19:01:30.752Z,1009.67
2017-09-04T19:11:30.767Z,1009.81
2017-09-04T19:21:30.756Z,1009.9
2017-09-04T19:31:30.760Z,1009.86
2017-09-04T19:41:30.752Z,1009.96
2017-09-04T19:51:30.752Z,1010.03
2017-09-04T20:01:30.742Z,1010.05
2017-09-04T20:11:30.744Z,1010.1
2017-09-04T20:21:30.750Z,1010.24
2017-09-04T20:31:30.747Z,1010.37
2017-09-04T20:41:30.753Z,1010.41
2017-09-04T20:51:30.755Z,1010.45
2017-09-04T21:01:30.811Z,1010.41
2017-09-04T21:11:30.782Z,1010.51
2017-09-04T21:21:30.881Z,1010.54
2017-09-04T21:31:30.807Z,1010.68
2017-09-04T21:41:30.863Z,1010.74
2017-09-04T21:51:30.823Z,1010.78
2017-09-04T22:01:30.777Z,1010.82
2017-09-04T22:11:30.846Z,1010.92
2017-09-04T22:21:30.806Z,1010.81
2017-09-04T22:31:30.764Z,1010.8
2017-09-04T22:41:30.824Z,1010.67
2017-09-04T22:51:30.786Z,1010.72
2017-09-04T23:01:30.847Z,1010.68
2017-09-04T23:11:30.800Z,1010.53
2017-09-04T23:21:30.768Z,1010.49
2017-09-04T23:31:30.843Z,1010.6
2017-09-04T23:41:30.810Z,1010.58
2017-09-04T23:51:30.761Z,1010.59
